Prachuap Khirikhan, Thailand
Current Conditions -  °F | °C
As of 3:30 AM on Tuesday 23 Dec 2014 (Local Time) from VTBU Reporting Station
Haze Haze  
Wind Chill: 72°   Ceiling: Unl
Heat Index: 72°   Visibility: 1.2mi
Dew Point: 54°   Wind: 8mph
Humidity: 53%   Direction: 40°NE
Pressure: 29.85"   Gusts: NA
Location:  11.83°N, 99.83°E
Report Text: VTBU 222030Z 04007KT 2000 HZ NSC 22/12 Q1011 A2987
Loading
Personal Weather Stations






























Interactive Weather Map New forecast layout! Learn more

10-Day Weather Forecast

Advertisements
Track Severe Weather on mobile